createdAt,value
2023-09-27T00:00:00.691Z,1.90
2023-09-27T00:03:02.845Z,1.77
2023-09-27T00:06:05.227Z,1.00
2023-09-27T00:09:08.082Z,1.50
2023-09-27T00:12:11.522Z,2.92
2023-09-27T00:15:13.901Z,1.58
2023-09-27T00:18:16.202Z,1.77
2023-09-27T00:21:18.573Z,1.60
2023-09-27T00:24:20.766Z,1.85
2023-09-27T00:30:24.918Z,1.83
2023-09-27T00:33:27.026Z,1.33
2023-09-27T00:39:31.249Z,1.25
2023-09-27T00:42:33.542Z,1.42
2023-09-27T00:45:35.670Z,1.70
2023-09-27T00:48:38.083Z,1.92
2023-09-27T00:54:42.673Z,1.20
2023-09-27T00:57:45.469Z,1.55
2023-09-27T01:00:51.198Z,2.60
2023-09-27T01:03:54.192Z,2.00
2023-09-27T01:06:56.769Z,2.55
2023-09-27T01:09:58.948Z,2.35
2023-09-27T01:13:01.412Z,3.05
2023-09-27T01:16:04.765Z,1.75
2023-09-27T01:19:08.984Z,2.97
2023-09-27T01:22:12.198Z,2.40
2023-09-27T01:25:18.069Z,2.20
2023-09-27T01:28:20.054Z,1.77
2023-09-27T01:31:22.068Z,2.30
2023-09-27T01:34:26.106Z,2.05
2023-09-27T01:37:28.189Z,2.70
2023-09-27T01:40:30.557Z,2.65
2023-09-27T01:46:35.366Z,2.53
2023-09-27T01:49:37.416Z,2.22
2023-09-27T01:52:40.676Z,2.03
2023-09-27T01:55:42.690Z,1.63
2023-09-27T01:58:44.675Z,1.52
2023-09-27T02:01:46.761Z,1.33
2023-09-27T02:04:48.851Z,2.47
2023-09-27T02:07:51.038Z,2.28
2023-09-27T02:10:53.123Z,1.73
2023-09-27T02:13:55.257Z,1.85
2023-09-27T02:16:57.303Z,2.70
2023-09-27T02:19:59.401Z,1.30
2023-09-27T02:23:01.562Z,1.80
2023-09-27T02:26:03.730Z,1.38
2023-09-27T02:29:08.515Z,1.50
2023-09-27T02:32:10.904Z,2.03
2023-09-27T02:35:14.546Z,1.80
2023-09-27T02:38:16.687Z,1.25
2023-09-27T02:41:18.741Z,1.75
2023-09-27T02:44:20.883Z,2.25
2023-09-27T02:47:22.916Z,1.90
2023-09-27T02:50:25.038Z,1.98
2023-09-27T02:53:27.151Z,1.63
2023-09-27T02:56:29.512Z,1.55
2023-09-27T02:59:32.441Z,1.95
2023-09-27T03:02:34.850Z,1.20
2023-09-27T03:05:37.261Z,2.38
2023-09-27T03:08:39.557Z,1.65
2023-09-27T03:11:41.528Z,2.50
2023-09-27T03:14:43.559Z,1.95
2023-09-27T03:17:45.805Z,2.22
2023-09-27T03:20:48.280Z,1.80
2023-09-27T03:23:50.685Z,1.98
2023-09-27T03:26:55.161Z,1.63
2023-09-27T03:29:57.272Z,1.63
2023-09-27T03:32:59.367Z,1.30
2023-09-27T03:36:04.660Z,1.73
2023-09-27T03:39:08.192Z,1.55
2023-09-27T03:42:10.306Z,1.25
2023-09-27T03:45:14.489Z,1.60
2023-09-27T03:48:16.932Z,1.40
2023-09-27T03:51:25.732Z,2.22
2023-09-27T03:54:28.481Z,1.95
2023-09-27T03:57:30.731Z,2.13
2023-09-27T04:00:34.168Z,1.92
2023-09-27T04:03:36.325Z,3.17
2023-09-27T04:06:38.626Z,3.45
2023-09-27T04:09:40.674Z,3.85
2023-09-27T04:12:42.661Z,3.78
2023-09-27T04:15:44.715Z,2.22
2023-09-27T04:18:46.679Z,2.63
2023-09-27T04:21:48.672Z,2.10
2023-09-27T04:24:50.661Z,2.10
2023-09-27T04:27:52.699Z,2.20
2023-09-27T04:30:55.774Z,1.73
2023-09-27T04:33:57.798Z,1.75
2023-09-27T04:36:59.763Z,2.22
2023-09-27T04:40:01.996Z,1.83
2023-09-27T04:43:04.313Z,2.53
2023-09-27T04:46:06.461Z,2.58
2023-09-27T04:49:08.835Z,2.25
2023-09-27T04:52:11.228Z,1.90
2023-09-27T04:55:13.650Z,1.88
2023-09-27T04:58:15.952Z,2.00
2023-09-27T05:01:18.153Z,1.35
2023-09-27T05:04:20.403Z,2.13
2023-09-27T05:07:22.634Z,3.03
2023-09-27T05:10:24.625Z,1.60
2023-09-27T05:13:26.758Z,1.48
2023-09-27T05:16:28.689Z,2.72
2023-09-27T05:19:30.700Z,1.52
2023-09-27T05:22:32.696Z,1.58
2023-09-27T05:25:34.691Z,3.03
2023-09-27T05:28:36.798Z,2.33
2023-09-27T05:31:38.821Z,1.67
2023-09-27T05:34:41.006Z,1.77
2023-09-27T05:37:43.300Z,2.10
2023-09-27T05:40:48.396Z,1.65
2023-09-27T05:43:50.388Z,1.40
2023-09-27T05:46:52.431Z,1.60
2023-09-27T05:49:54.510Z,1.92
2023-09-27T05:52:56.574Z,2.42
2023-09-27T05:56:00.926Z,2.88
2023-09-27T05:59:05.196Z,2.03
2023-09-27T06:02:07.606Z,1.75
2023-09-27T06:08:11.834Z,1.92
2023-09-27T06:11:13.903Z,1.77
2023-09-27T06:14:15.902Z,1.95
2023-09-27T06:17:18.330Z,1.65
2023-09-27T06:20:20.526Z,2.13
2023-09-27T06:23:22.561Z,1.95
2023-09-27T06:26:24.647Z,1.58
2023-09-27T06:29:26.885Z,2.75
2023-09-27T06:32:29.765Z,2.78
2023-09-27T06:35:31.826Z,2.10
2023-09-27T06:38:33.951Z,1.48
2023-09-27T06:41:35.973Z,2.00
2023-09-27T06:44:38.200Z,1.88
2023-09-27T06:47:44.073Z,1.77
2023-09-27T06:50:46.187Z,1.70
2023-09-27T06:53:48.279Z,2.13
2023-09-27T06:56:50.450Z,2.00
2023-09-27T06:59:52.575Z,1.88
2023-09-27T07:02:55.094Z,1.95
2023-09-27T07:05:57.164Z,1.50
2023-09-27T07:08:59.477Z,2.55
2023-09-27T07:12:01.751Z,2.22
2023-09-27T07:18:06.815Z,1.92
2023-09-27T07:21:11.182Z,1.77
2023-09-27T07:24:13.268Z,1.77
2023-09-27T07:27:15.406Z,1.67
2023-09-27T07:33:19.774Z,1.40
2023-09-27T07:36:22.347Z,1.77
2023-09-27T07:39:24.486Z,1.77
2023-09-27T07:42:26.636Z,1.73
2023-09-27T07:45:28.622Z,1.73
2023-09-27T07:48:32.867Z,1.50
2023-09-27T07:51:35.515Z,1.58
2023-09-27T07:54:37.521Z,1.52
2023-09-27T07:57:39.581Z,2.03
2023-09-27T08:00:42.106Z,1.20
2023-09-27T08:03:44.399Z,1.77
2023-09-27T08:06:48.892Z,1.80
2023-09-27T08:09:54.290Z,1.50
2023-09-27T08:12:59.490Z,1.70
2023-09-27T08:16:01.487Z,1.25
2023-09-27T08:19:03.500Z,1.58
2023-09-27T08:22:05.823Z,1.77
2023-09-27T08:25:11.794Z,1.35
2023-09-27T08:28:13.824Z,1.60
2023-09-27T08:31:15.897Z,1.80
2023-09-27T08:34:17.931Z,1.55
2023-09-27T08:37:19.956Z,1.60
2023-09-27T08:40:21.976Z,1.45
2023-09-27T08:43:27.730Z,1.20
2023-09-27T08:46:32.172Z,1.13
2023-09-27T08:49:34.970Z,1.38
2023-09-27T08:52:37.946Z,1.00
2023-09-27T08:55:40.019Z,1.00
2023-09-27T08:58:42.406Z,1.15
2023-09-27T09:01:46.013Z,1.00
2023-09-27T09:04:48.363Z,1.10
2023-09-27T09:07:50.399Z,1.05
2023-09-27T09:10:54.558Z,1.10
2023-09-27T09:14:00.564Z,1.92
2023-09-27T09:17:02.654Z,1.17
2023-09-27T09:20:06.889Z,1.25
2023-09-27T09:23:09.101Z,1.35
2023-09-27T09:26:11.462Z,1.25
2023-09-27T09:29:13.777Z,1.90
2023-09-27T09:32:16.852Z,1.42
2023-09-27T09:35:34.534Z,2.08
2023-09-27T09:38:36.915Z,2.03
2023-09-27T09:41:51.221Z,1.35
2023-09-27T09:45:02.849Z,1.45
2023-09-27T09:48:05.157Z,1.38
2023-09-27T09:51:08.773Z,1.52
2023-09-27T09:54:11.468Z,1.55
2023-09-27T09:57:21.811Z,1.30
2023-09-27T10:00:31.404Z,2.95
2023-09-27T10:03:34.896Z,1.80
2023-09-27T10:06:48.729Z,1.58
2023-09-27T10:09:52.668Z,1.30
2023-09-27T10:12:55.860Z,1.73
2023-09-27T10:15:58.193Z,1.30
2023-09-27T10:19:02.467Z,1.35
2023-09-27T10:22:06.104Z,1.65
2023-09-27T10:25:26.804Z,1.42
2023-09-27T10:28:28.827Z,1.05
2023-09-27T10:31:35.068Z,1.15
2023-09-27T10:34:40.063Z,1.83
2023-09-27T10:38:02.349Z,1.50
2023-09-27T10:41:04.557Z,1.20
2023-09-27T10:44:06.826Z,1.20
2023-09-27T10:47:09.104Z,1.38
2023-09-27T10:50:11.353Z,1.58
2023-09-27T11:03:20.184Z,1.63
2023-09-27T11:06:22.362Z,1.48
2023-09-27T11:09:27.242Z,1.08
2023-09-27T11:12:29.243Z,1.38
2023-09-27T11:15:31.300Z,1.17
2023-09-27T11:18:37.673Z,0.93
2023-09-27T11:21:42.485Z,1.35
2023-09-27T11:24:44.466Z,1.45
2023-09-27T11:27:46.561Z,1.25
2023-09-27T11:30:57.556Z,2.40
2023-09-27T11:34:22.941Z,1.02
2023-09-27T11:37:25.764Z,1.05
2023-09-27T11:40:35.129Z,0.88
2023-09-27T11:43:37.239Z,0.90
2023-09-27T11:46:39.279Z,1.00
2023-09-27T11:49:41.370Z,0.90
2023-09-27T11:52:43.760Z,1.38
2023-09-27T11:55:45.815Z,0.93
2023-09-27T11:58:47.886Z,1.27
2023-09-27T12:01:50.615Z,1.10
2023-09-27T12:04:52.812Z,1.00
2023-09-27T12:08:08.101Z,1.40
2023-09-27T12:11:10.652Z,1.42
2023-09-27T12:14:13.185Z,1.05
2023-09-27T12:17:15.389Z,1.45
2023-09-27T12:20:31.735Z,1.30
2023-09-27T12:23:39.313Z,1.10
2023-09-27T12:26:41.499Z,1.00
2023-09-27T12:29:43.747Z,1.15
2023-09-27T12:32:45.941Z,1.60
2023-09-27T12:35:48.347Z,0.80
2023-09-27T12:38:50.537Z,1.10
2023-09-27T12:41:53.548Z,1.15
2023-09-27T12:44:56.073Z,0.90
2023-09-27T12:47:58.736Z,0.60
2023-09-27T12:51:00.930Z,0.90
2023-09-27T12:54:03.140Z,0.80
2023-09-27T12:57:05.596Z,0.80
2023-09-27T13:00:08.480Z,0.98
2023-09-27T13:03:10.690Z,0.60
2023-09-27T13:06:13.089Z,0.80
2023-09-27T13:09:15.276Z,0.50
2023-09-27T13:12:17.420Z,0.50
2023-09-27T13:15:19.461Z,0.60
2023-09-27T13:18:21.664Z,0.95
2023-09-27T13:21:23.838Z,0.50
2023-09-27T13:24:25.992Z,0.82
2023-09-27T13:27:28.248Z,0.75
2023-09-27T13:30:35.964Z,0.70
2023-09-27T13:33:38.759Z,0.63
2023-09-27T13:36:41.528Z,1.02
2023-09-27T13:39:43.742Z,0.63
2023-09-27T13:42:45.901Z,1.48
2023-09-27T13:45:50.527Z,0.60
2023-09-27T13:48:52.944Z,1.17
2023-09-27T13:51:55.398Z,0.70
2023-09-27T13:54:57.674Z,0.52
2023-09-27T13:57:59.804Z,0.80
2023-09-27T14:01:03.858Z,0.90
2023-09-27T14:04:06.226Z,0.88
2023-09-27T14:07:10.685Z,0.65
2023-09-27T14:10:12.736Z,0.75
2023-09-27T14:13:14.980Z,0.70
2023-09-27T14:16:18.139Z,0.98
2023-09-27T14:19:20.436Z,0.65
2023-09-27T14:22:22.816Z,0.47
2023-09-27T14:25:28.987Z,0.88
2023-09-27T14:28:31.306Z,0.60
2023-09-27T14:31:33.644Z,0.57
2023-09-27T14:37:42.301Z,1.60
2023-09-27T14:40:45.144Z,0.40
2023-09-27T14:43:47.387Z,0.68
2023-09-27T14:46:51.981Z,0.47
2023-09-27T14:49:54.160Z,0.70
2023-09-27T14:52:56.354Z,0.65
2023-09-27T14:56:12.030Z,0.52
2023-09-27T14:59:14.489Z,0.60
2023-09-27T15:02:17.015Z,1.20
2023-09-27T15:05:20.717Z,0.47
2023-09-27T15:08:23.750Z,1.02
2023-09-27T15:11:26.837Z,0.85
2023-09-27T15:14:28.973Z,0.40
2023-09-27T15:17:41.960Z,1.38
2023-09-27T15:20:44.102Z,0.63
2023-09-27T15:23:46.982Z,0.95
2023-09-27T15:26:49.719Z,0.80
2023-09-27T15:29:51.996Z,0.68
2023-09-27T15:32:54.081Z,0.43
2023-09-27T15:35:57.541Z,0.60
2023-09-27T15:39:01.285Z,1.25
2023-09-27T15:42:03.826Z,0.68
2023-09-27T15:45:09.420Z,0.95
2023-09-27T15:48:11.690Z,0.38
2023-09-27T15:51:17.982Z,0.52
2023-09-27T15:54:20.114Z,0.90
2023-09-27T15:57:22.278Z,0.47
2023-09-27T16:00:24.597Z,0.60
2023-09-27T16:03:26.805Z,1.20
2023-09-27T16:06:29.037Z,0.70
2023-09-27T16:09:31.113Z,1.27
2023-09-27T16:12:33.343Z,0.22
2023-09-27T16:15:35.546Z,1.10
2023-09-27T16:18:37.603Z,0.75
2023-09-27T16:21:39.707Z,1.00
2023-09-27T16:24:44.350Z,0.85
2023-09-27T16:27:46.594Z,0.70
2023-09-27T16:30:49.040Z,0.55
2023-09-27T16:33:51.901Z,0.50
2023-09-27T16:36:54.181Z,0.90
2023-09-27T16:39:56.417Z,0.77
2023-09-27T16:42:59.517Z,1.58
2023-09-27T16:46:07.397Z,0.93
2023-09-27T16:49:09.453Z,1.35
2023-09-27T16:52:11.764Z,0.82
2023-09-27T16:55:14.018Z,0.70
2023-09-27T16:58:16.143Z,0.50
2023-09-27T17:01:21.584Z,1.40
2023-09-27T17:04:23.715Z,1.45
2023-09-27T17:07:26.709Z,1.70
2023-09-27T17:10:28.862Z,1.40
2023-09-27T17:13:31.341Z,1.52
2023-09-27T17:16:33.529Z,1.48
2023-09-27T17:19:35.821Z,2.30
2023-09-27T17:22:40.745Z,1.95
2023-09-27T17:25:43.000Z,1.65
2023-09-27T17:28:45.607Z,1.48
2023-09-27T17:31:48.255Z,1.13
2023-09-27T17:34:50.454Z,1.13
2023-09-27T17:37:52.663Z,1.25
2023-09-27T17:40:56.240Z,0.88
2023-09-27T17:43:58.386Z,1.00
2023-09-27T17:47:00.806Z,1.15
2023-09-27T17:50:03.144Z,0.93
2023-09-27T17:53:05.349Z,1.13
2023-09-27T17:56:08.683Z,0.80
2023-09-27T17:59:10.848Z,0.45
2023-09-27T18:02:16.113Z,0.85
2023-09-27T18:05:18.303Z,0.75
2023-09-27T18:08:20.512Z,2.13
2023-09-27T18:11:22.987Z,0.82
2023-09-27T18:14:27.966Z,0.52
2023-09-27T18:17:30.110Z,0.85
2023-09-27T18:20:32.397Z,0.50
2023-09-27T18:23:34.749Z,0.95
2023-09-27T18:26:36.877Z,0.70
2023-09-27T18:29:39.098Z,1.40
2023-09-27T18:32:41.313Z,0.77
2023-09-27T18:35:43.522Z,0.85
2023-09-27T18:38:45.886Z,0.73
2023-09-27T18:41:48.006Z,0.80
2023-09-27T18:44:50.216Z,0.93
2023-09-27T18:47:54.722Z,1.02
2023-09-27T18:50:59.128Z,0.60
2023-09-27T18:54:01.194Z,1.45
2023-09-27T19:00:07.753Z,0.60
2023-09-27T19:03:14.797Z,0.90
2023-09-27T19:06:17.086Z,1.42
2023-09-27T19:09:19.222Z,0.95
2023-09-27T19:12:21.338Z,0.85
2023-09-27T19:18:25.449Z,1.13
2023-09-27T19:24:29.639Z,0.98
2023-09-27T19:27:31.929Z,1.10
2023-09-27T19:30:34.490Z,1.40
2023-09-27T19:33:38.114Z,1.10
2023-09-27T19:36:40.212Z,0.77
2023-09-27T19:42:44.478Z,0.80
2023-09-27T19:45:47.525Z,1.48
2023-09-27T19:48:49.734Z,1.23
2023-09-27T19:55:02.053Z,0.80
2023-09-27T19:58:04.296Z,1.02
2023-09-27T20:01:06.617Z,0.70
2023-09-27T20:04:08.917Z,1.50
2023-09-27T20:10:25.690Z,0.88
2023-09-27T20:13:27.853Z,1.25
2023-09-27T20:19:32.548Z,1.15
2023-09-27T20:22:36.853Z,0.93
2023-09-27T20:25:39.047Z,0.68
2023-09-27T20:28:41.328Z,0.50
2023-09-27T20:31:44.135Z,1.27
2023-09-27T20:34:46.553Z,0.47
2023-09-27T20:37:48.838Z,0.73
2023-09-27T20:40:51.022Z,0.80
2023-09-27T20:46:55.742Z,0.60
2023-09-27T20:53:00.114Z,1.10
2023-09-27T20:59:06.126Z,0.77
2023-09-27T21:05:10.600Z,1.02
2023-09-27T21:08:12.883Z,1.13
2023-09-27T21:14:17.422Z,1.17
2023-09-27T21:17:19.584Z,1.88
2023-09-27T21:20:21.916Z,1.10
2023-09-27T21:23:24.108Z,1.42
2023-09-27T21:29:28.910Z,2.08
2023-09-27T21:32:31.097Z,1.40
2023-09-27T21:35:35.505Z,1.45
2023-09-27T21:38:38.878Z,1.50
2023-09-27T21:41:41.745Z,1.30
2023-09-27T21:44:44.542Z,1.40
2023-09-27T21:47:46.794Z,1.52
2023-09-27T21:50:49.218Z,1.20
2023-09-27T21:53:51.749Z,1.60
2023-09-27T21:57:00.188Z,1.40
2023-09-27T22:00:03.906Z,0.90
2023-09-27T22:03:14.125Z,1.60
2023-09-27T22:09:19.448Z,0.82
2023-09-27T22:12:21.513Z,1.20
2023-09-27T22:15:23.677Z,1.20
2023-09-27T22:18:27.776Z,0.80
2023-09-27T22:21:31.974Z,1.15
2023-09-27T22:24:34.014Z,0.77
2023-09-27T22:27:40.551Z,1.38
2023-09-27T22:30:43.222Z,1.13
2023-09-27T22:33:45.663Z,1.27
2023-09-27T22:36:48.132Z,1.40
2023-09-27T22:39:58.068Z,1.38
2023-09-27T22:43:06.731Z,1.00
2023-09-27T22:46:08.741Z,0.80
2023-09-27T22:49:13.606Z,1.45
2023-09-27T22:52:15.646Z,1.42
2023-09-27T22:55:17.597Z,1.10
2023-09-27T22:58:21.240Z,1.40
2023-09-27T23:01:23.376Z,1.70
2023-09-27T23:04:26.018Z,1.20
2023-09-27T23:07:31.844Z,1.00
2023-09-27T23:10:35.517Z,1.33
2023-09-27T23:13:37.982Z,1.60
2023-09-27T23:16:42.620Z,1.20
2023-09-27T23:19:44.923Z,1.10
2023-09-27T23:22:47.273Z,1.23
2023-09-27T23:28:51.181Z,1.00
2023-09-27T23:31:55.530Z,1.45
2023-09-27T23:35:00.048Z,1.10
2023-09-27T23:38:02.177Z,1.23
2023-09-27T23:41:04.237Z,1.33
2023-09-27T23:44:06.799Z,1.58
2023-09-27T23:47:08.969Z,1.13
2023-09-27T23:50:12.874Z,0.95
2023-09-27T23:53:15.406Z,1.15
2023-09-27T23:56:18.310Z,1.75
2023-09-27T23:59:20.469Z,1.17
